x

8419317 - Wells, Me (welm1) Weather Station

12:54am - Wed 27th May 2015 All times are EDT. -4 hours from GMT.

  • Wind
    6mph, 13mph gusts
  • Sea Temp 49°f
  • 空気 Temp 74°f
  • Sea Pressure 1018.4mb
  • 8419317 - Wells, Me
  • 8419317 - Wells, Me

More Historic Weather Station data

Upgrade to MSW Pro to gain access to the past 30 days of data for over 8000 Wavebouys and Weather Stations around the globe.

Join Pro

Comparision Forecast

View Surf forecast
   
Wed 05/27 12:54am 6 13 mph 1018.4mb 49f 74f
12:48am 5 11 mph 1018.4mb 49f 74f
12:42am 6 11 mph 1018.4mb 49f 74f
12:36am 6 9 mph 1018.5mb 49f 74f
12:30am 6 9 mph 1018.5mb 49f 74f
12:24am 6 10 mph 1018.5mb 49f 74f
12:18am 6 9 mph 1018.4mb 49f 73f
12:12am 3 6 mph 1018.4mb 49f 68f
12:06am 6 8 mph 1018.3mb 49f 69f
12:00am 5 9 mph 1018.4mb 49f 75f
Tue 05/26 11:54pm 3 6 mph 1018.4mb 49f 74f
11:48pm 6 8 mph 1018.5mb 49f 75f
11:42pm 7 13 mph 1018.4mb 49f 75f
11:36pm 8 10 mph 1018.4mb 49f 76f
11:30pm 6 10 mph 1018.3mb 49f 76f
11:24pm 7 10 mph 1018.3mb 49f 76f
11:18pm 7 15 mph 1018.2mb 49f 76f
11:12pm 9 11 mph 1018.2mb 48f -
11:06pm 10 14 mph 1018.1mb 48f -
11:00pm 10 14 mph 1018mb 48f -
10:54pm 11 17 mph 1017.9mb 48f -
10:48pm 9 14 mph 1017.8mb 48f -
10:42pm 11 17 mph 1017.7mb 48f -
10:36pm 13 16 mph 1017.6mb 48f -
10:30pm 8 14 mph 1017.7mb 48f -
10:24pm 9 14 mph 1017.7mb 48f -
10:18pm 5 9 mph 1017.7mb 47f 66f
10:12pm 2 3 mph 1017.6mb 47f 62f
10:06pm 3 6 mph 1017.6mb 47f 63f
10:00pm 6 7 mph 1017.6mb 47f 61f
9:54pm 3 6 mph 1017.6mb 47f 62f
9:48pm 3 5 mph 1017.5mb 47f 63f
9:42pm  -  2 mph 1017.6mb 47f 62f
9:36pm 2 6 mph 1017.5mb 46f 64f
9:30pm 2 6 mph 1017.5mb 46f 62f
9:24pm 6 8 mph 1017.5mb 46f 61f
9:18pm 7 8 mph 1017.5mb 46f 60f
9:12pm 3 5 mph 1017.3mb 46f 61f
9:06pm 3 7 mph 1017.3mb 46f 63f
9:00pm 6 7 mph 1017.2mb 46f 61f
8:54pm 5 6 mph 1017.1mb 45f 61f
8:48pm 1 2 mph 1017mb 45f 62f
8:42pm 3 5 mph 1017mb 45f 64f
8:36pm 2 6 mph 1017mb 45f 62f
8:30pm 7 8 mph 1017mb 45f 60f
8:24pm 5 8 mph 1017mb 45f 59f
8:18pm 7 10 mph 1016.9mb 45f 58f
8:12pm 7 10 mph 1016.9mb 45f 61f
8:06pm 10 11 mph 1016.9mb 45f 60f
8:00pm 8 10 mph 1016.9mb 45f 61f
7:54pm 7 10 mph 1016.8mb 45f 64f
7:48pm 9 11 mph 1016.8mb 45f 62f
7:42pm 11 15 mph 1016.8mb 45f 65f
7:36pm 10 15 mph 1016.6mb 45f -
7:30pm 9 16 mph 1016.7mb 45f -
7:24pm 6 9 mph 1016.7mb 45f 66f
7:18pm 9 13 mph 1016.8mb 45f 64f
7:12pm 11 14 mph 1016.8mb 45f 64f
7:06pm 11 16 mph 1016.7mb 45f 63f
7:00pm 15 18 mph 1016.8mb 45f 60f
6:54pm 10 11 mph 1016.7mb 45f 62f
6:48pm 9 11 mph 1016.5mb 45f 65f
6:42pm 8 10 mph 1016.5mb 44f 65f
6:36pm 6 8 mph 1016.5mb 44f 64f
6:30pm 6 8 mph 1016.5mb 44f 63f
6:24pm 7 11 mph 1016.5mb 44f 63f
6:18pm 11 16 mph 1016.5mb 44f 61f
6:12pm 14 20 mph 1016.5mb 44f 60f
6:06pm 18 21 mph 1016.6mb 44f 61f
6:00pm 17 20 mph 1016.5mb 44f 64f
5:54pm 16 17 mph 1016.4mb 44f 64f
5:48pm 14 18 mph 1016.3mb 44f 70f
5:42pm 17 21 mph 1016.2mb 44f 67f
5:36pm 14 15 mph 1016.2mb 45f 71f
5:30pm 13 15 mph 1016.1mb 45f 70f
5:24pm 11 15 mph 1016.2mb 45f 66f
5:18pm 14 17 mph 1016.2mb 45f 65f
5:12pm 16 18 mph 1016.3mb 45f 64f
5:06pm 16 20 mph 1016.3mb 45f 61f
5:00pm 17 22 mph 1016.4mb 45f 61f
4:54pm 18 22 mph 1016.4mb 45f 62f
4:48pm 16 20 mph 1016.4mb 45f 60f
4:42pm 16 22 mph 1016.4mb 45f 61f
4:36pm 14 15 mph 1016.3mb 45f 61f
4:30pm 11 16 mph 1016.2mb 45f 64f
4:24pm 10 17 mph 1016.2mb 45f 65f
4:18pm 14 15 mph 1016.2mb 46f 64f
4:12pm 13 16 mph 1016.2mb 46f 62f
4:06pm 16 18 mph 1016.4mb 46f 60f
4:00pm 14 16 mph 1016.4mb 46f 60f
3:54pm 14 16 mph 1016.4mb 47f 61f
3:48pm 14 20 mph 1016.4mb 47f 64f
3:42pm 15 17 mph 1016.4mb 47f 66f
3:36pm 13 18 mph 1016.5mb 47f 67f
3:30pm 14 17 mph 1016.5mb 47f 71f
3:24pm 10 17 mph 1016.3mb 47f -
3:18pm 11 22 mph 1016.4mb 47f -
3:12pm 10 22 mph 1016.4mb 48f -
3:06pm 14 20 mph 1016.5mb 48f -
3:00pm 10 16 mph 1016.5mb 48f -
2:54pm 7 17 mph 1016.5mb 48f -
2:48pm 13 20 mph 1016.5mb 48f -
2:42pm 11 17 mph 1016.6mb 48f -
2:36pm 15 23 mph 1016.7mb 48f -
2:30pm 9 18 mph 1016.7mb 48f -
2:24pm 13 20 mph 1016.7mb 48f -
2:18pm 10 17 mph 1016.7mb 48f -
2:12pm 14 21 mph 1016.7mb 48f -
2:06pm 14 22 mph 1016.7mb 48f -
2:00pm 5 14 mph 1016.8mb 48f -
1:30pm 6 21 mph 1017mb 47f 70f
1:24pm 15 20 mph 1017mb 47f -
1:18pm 13 25 mph 1016.9mb 47f -
1:12pm 10 14 mph 1017.1mb 47f -
1:06pm 13 22 mph 1017.2mb 47f -
1:00pm 11 21 mph 1017.3mb 47f -
12:54pm 3 9 mph 1017.4mb 47f 66f
12:48pm 9 15 mph 1017.5mb 46f 65f
12:42pm 15 20 mph 1017.4mb 46f 71f
12:36pm 6 11 mph 1017.7mb 46f -
12:30pm 10 14 mph 1017.7mb 46f -
12:24pm 8 13 mph 1017.7mb 46f 77f
12:18pm 7 13 mph 1017.7mb 46f 70f
12:12pm 11 14 mph 1017.8mb 46f 68f
12:06pm 11 15 mph 1017.9mb 46f 65f
12:00pm 10 14 mph 1018.1mb 46f 64f
11:54am 10 11 mph 1018.3mb 46f 65f
11:48am 9 11 mph 1018.3mb 46f 63f
11:42am 10 13 mph 1018.4mb 46f 62f
11:36am 7 10 mph 1018.4mb 46f 64f
11:30am 10 14 mph 1018.3mb 46f 64f
11:24am 10 11 mph 1018.3mb 46f 64f
11:18am 10 13 mph 1018.3mb 47f 63f
11:12am 8 10 mph 1018.4mb 47f 63f
11:06am 7 9 mph 1018.5mb 47f 62f
11:00am 7 11 mph 1018.5mb 47f 60f
10:54am 9 11 mph 1018.5mb 47f 58f
10:48am 9 14 mph 1018.3mb 46f 58f
10:42am 13 14 mph 1018.1mb 46f 57f
10:36am 11 13 mph 1018.1mb 46f 59f
10:30am 7 11 mph 1018.2mb 46f 60f
10:24am 7 9 mph 1018.1mb 46f 62f
10:18am 7 9 mph 1018.1mb 46f 62f
10:12am 8 9 mph 1018.3mb 46f 60f
10:06am 6 8 mph 1018.3mb 45f 60f
10:00am 6 10 mph 1018.3mb 45f 60f
9:54am 9 10 mph 1018.3mb 45f 57f
9:48am 9 10 mph 1018.3mb 45f 56f
9:42am 8 11 mph 1018.3mb 45f 55f
9:36am 9 10 mph 1018.4mb 45f 55f
9:30am 6 10 mph 1018.4mb 45f 56f
9:24am 9 14 mph 1018.3mb 45f 55f
9:18am 8 11 mph 1018.2mb 44f 57f
9:12am 10 13 mph 1018.3mb 44f 57f
9:06am 9 13 mph 1018.4mb 44f 57f
9:00am 9 14 mph 1018.4mb 44f 57f
8:54am 10 13 mph 1018.3mb 44f 58f
8:48am 8 10 mph 1018.3mb 44f 58f
8:42am 8 11 mph 1018.4mb 44f 57f
8:36am 7 8 mph 1018.4mb 44f 56f
8:30am 5 6 mph 1018.4mb 44f 55f
8:24am 5 8 mph 1018.3mb 44f 53f
8:18am 5 7 mph 1018.2mb 43f 54f
8:12am 3 6 mph 1018.3mb 43f 53f
8:06am 7 11 mph 1018.4mb 43f 53f
8:00am 11 14 mph 1018.4mb 43f 53f
7:54am 11 14 mph 1018.5mb 43f 53f
7:48am 13 14 mph 1018.5mb 43f 53f
7:42am 10 11 mph 1018.5mb 43f 52f
7:36am 11 14 mph 1018.6mb 43f 52f
7:30am 11 13 mph 1018.5mb 43f 53f
7:24am 9 10 mph 1018.5mb 43f 52f
7:18am 7 9 mph 1018.4mb 43f 52f
7:12am 8 11 mph 1018.3mb 43f 53f
7:06am 9 13 mph 1018.2mb 43f 53f
7:00am 9 10 mph 1018.2mb 43f 54f
6:54am 8 10 mph 1018.2mb 43f 53f
6:48am 6 7 mph 1018.1mb 42f 53f
6:42am 5 7 mph 1018.1mb 42f 53f
6:36am 5 6 mph 1018mb 42f 53f
6:30am 5 8 mph 1018mb 42f 52f
6:24am 9 10 mph 1018.1mb 42f 52f
6:18am 9
mph
1018mb 42f 52f
6:12am 7 9 mph 1017.9mb 42f 52f
6:06am 6 7 mph 1017.8mb 42f 52f
6:00am 6 8 mph 1017.8mb 42f 52f
5:54am 6 8 mph 1017.7mb 43f 53f
5:48am 8 11 mph 1017.7mb 43f 53f
5:42am 8 9 mph 1017.7mb 43f 53f
5:36am 9 10 mph 1017.5mb 43f 53f
5:30am 6 7 mph 1017.6mb 43f 53f
5:24am 6 8 mph 1017.5mb 43f 53f
5:18am 7 8 mph 1017.6mb 43f 54f
5:12am 7 8 mph 1017.6mb 43f 54f
5:06am 6 7 mph 1017.6mb 43f 53f
5:00am  -  2 mph 1017.6mb 43f 55f
4:54am 1 2 mph 1017.7mb 43f 55f
4:48am 2 3 mph 1017.6mb 43f 54f
4:42am 3 6 mph 1017.6mb 43f 54f
4:36am 5 7 mph 1017.7mb 43f 53f
4:30am 2 3 mph 1017.7mb 43f 54f
4:24am 1
mph
1017.7mb 43f 53f
4:18am  -  1 mph 1017.7mb 43f 53f
4:12am  -  3 mph 1017.8mb 43f 53f
4:06am 2 3 mph 1017.7mb 43f 54f
4:00am 2 5 mph 1017.7mb 43f 54f
3:54am 3 5 mph 1017.6mb 43f 54f
3:48am  -  1 mph 1017.6mb 43f 54f
3:42am 1 3 mph 1017.6mb 43f 53f
3:36am 3 5 mph 1017.6mb 43f 53f
3:30am 5 7 mph 1017.7mb 43f 53f
3:24am 8 9 mph 1017.7mb 44f 53f
3:18am 7 9 mph 1017.7mb 44f 53f
3:12am 3 5 mph 1017.8mb 45f 54f
3:06am  -  5 mph 1017.8mb 45f 54f
3:00am 6 8 mph 1017.8mb 46f 54f
2:54am 7
mph
1017.8mb 47f 54f
2:48am 5 6 mph - 48f 54f
2:42am 3 6 mph - 49f 54f
2:36am 5 6 mph - 49f 54f
2:30am 3 5 mph 1017.9mb 49f 53f
2:24am 2 3 mph 1018mb 49f 53f
2:18am 2 5 mph 1018mb 49f 53f
2:12am 3 5 mph 1017.9mb 49f 53f
2:06am 5 6 mph 1018mb 49f 53f
2:00am 5 6 mph 1018mb 48f 53f
1:54am 5 6 mph 1018.1mb 48f 53f
1:48am 5 6 mph 1018.2mb 48f 54f
1:42am 1 3 mph 1018.2mb 48f 54f
1:36am  -  1 mph 1018.2mb 48f 54f
1:30am  -  1 mph 1018.2mb 48f 53f
1:24am 1 3 mph 1018.1mb 48f 53f
1:18am 1 2 mph 1018.2mb 48f 53f
1:12am 1 2 mph 1018.2mb 48f 53f
1:06am  -  2 mph 1018.2mb 48f 53f
1:00am 2 5 mph 1018.2mb 48f 53f
12:54am 3 6 mph 1018.2mb 48f 53f
12:48am 5 7 mph 1018.2mb 48f 53f
12:42am 8 9 mph 1018.3mb 48f 53f
12:36am 8 9 mph 1018.3mb 48f 53f
12:30am 8 10 mph 1018.5mb 48f 53f
12:24am 10 11 mph 1018.5mb 48f 54f
12:18am 9 10 mph 1018.6mb 48f 54f
12:12am 7 8 mph 1018.6mb 48f 54f
12:06am 8 9 mph 1018.7mb 48f 55f
12:00am 9 10 mph 1018.8mb 48f 55f
Mon 05/25 11:54pm 9 10 mph 1018.8mb 48f 55f
11:48pm 9 10 mph 1018.9mb 48f 56f
11:42pm 8 9 mph 1018.9mb 48f 56f
11:36pm 7 8 mph 1018.9mb 48f 55f
11:30pm 7 9 mph 1019mb 48f 55f
11:24pm 8 10 mph 1019mb 48f 55f
11:18pm 9 11 mph 1019mb 48f 55f
11:12pm 11 14 mph 1019mb 48f 55f
11:06pm 14 16 mph 1019.1mb 48f 55f
11:00pm 14 17 mph 1019.1mb 48f 55f
10:54pm 14 16 mph 1019mb 48f 56f
10:48pm 14 16 mph 1019mb 48f 56f
10:42pm 14 16 mph 1019mb 48f 56f
10:36pm 15 16 mph 1019mb 47f 56f
10:30pm 14 16 mph 1019.1mb 47f 56f
10:24pm 14 16 mph 1019.1mb 47f 57f
10:18pm 15 16 mph 1019.2mb 47f 57f
10:12pm 14 16 mph 1019.2mb 47f 57f
10:06pm 13 15 mph 1019.2mb 47f 57f
10:00pm 13 14 mph 1019.2mb 47f 58f
9:54pm 11 13 mph 1019.1mb 46f 58f
9:48pm 11 13 mph 1019.2mb 46f 58f
9:42pm 10 13 mph 1019.2mb 46f 59f
9:36pm 10 13 mph 1019.2mb 46f 58f
9:30pm 10 11 mph 1019.2mb 46f 59f
9:24pm 10 13 mph 1019.2mb 46f 59f
9:18pm 11 13 mph 1019.2mb 46f 58f
9:12pm 13 14 mph 1019.3mb 46f 58f
9:06pm 13 15 mph 1019.3mb 46f 58f
9:00pm 11 13 mph 1019.2mb 45f 58f
8:54pm 11 14 mph 1019.1mb 45f 58f
8:48pm 13 14 mph 1019.1mb 45f 57f
8:42pm 14 15 mph 1019.1mb 45f 58f
8:36pm 14 15 mph 1019.1mb 45f 57f
8:30pm 14 15 mph 1019.1mb 45f 57f
8:24pm 14 16 mph 1019.1mb 44f 57f
8:18pm 14 16 mph 1019.1mb 44f 56f
8:12pm 15 16 mph 1019.2mb 44f 57f
8:06pm 15 16 mph 1019.3mb 44f 57f
8:00pm 14 16 mph 1019.3mb 44f 56f
7:54pm 15 18 mph 1019.3mb 44f 56f
7:48pm 16 20 mph 1019.3mb 44f 57f
7:42pm 18 21 mph 1019.4mb 44f 58f
7:36pm 17 21 mph 1019.5mb 44f 58f
7:30pm 13 15 mph 1019.4mb 44f 57f
7:24pm 11 13 mph 1019.5mb 43f 57f
7:18pm 10 13 mph 1019.5mb 43f 57f
7:12pm 11 14 mph 1019.5mb 43f 58f
7:06pm 13 15 mph 1019.7mb 43f 58f
7:00pm 13 16 mph 1019.8mb 43f 58f
6:54pm 9 10 mph 1019.7mb 43f 58f
6:48pm 9 10 mph 1019.8mb 43f 58f
6:42pm 8 9 mph 1019.8mb 43f 58f
6:36pm 7 8 mph 1019.8mb 43f 59f
6:30pm 7 8 mph 1019.8mb 43f 59f
6:24pm 7 9 mph 1019.8mb 43f 59f
6:18pm 8 9 mph 1019.8mb 43f -
6:12pm 8 9 mph 1019.8mb 43f -
6:06pm 8 10 mph 1019.9mb 43f -
6:00pm 10 11 mph 1019.9mb 43f -
5:54pm 9 13 mph 1020mb 43f -
5:48pm 10 11 mph 1020mb 43f -
5:42pm 10 14 mph 1019.9mb 43f -
5:36pm 13 14 mph 1020mb 43f -
5:30pm 14 15 mph 1020mb 43f -
5:24pm 11 14 mph 1020mb 43f -
5:18pm 13 14 mph 1020.1mb 43f -
5:12pm 11 16 mph 1020.1mb 43f -
5:06pm 15 17 mph 1020.1mb 43f -
5:00pm 13 16 mph 1020.2mb 43f -
4:54pm 3 7 mph 1020mb 43f -
4:48pm 8 10 mph 1020.1mb 43f -
4:42pm 8 13 mph 1020.1mb 43f -
4:36pm 11 13 mph 1020.1mb 43f -
4:30pm 11 14 mph 1020.1mb 43f -
4:24pm 14 17 mph 1020.2mb 43f 74f
4:18pm 11 16 mph 1020.1mb 43f 74f
4:12pm 13 18 mph 1020.2mb 43f 78f
4:06pm 13 21 mph 1020.2mb 43f 79f
4:00pm 13 18 mph 1020.3mb 43f 79f
3:54pm 8 16 mph 1020.3mb 43f 80f
3:48pm 10 21 mph 1020.3mb 43f 80f
3:42pm 15 28 mph 1020.3mb 43f 80f
3:36pm 11 17 mph 1020.3mb 43f 80f
3:30pm 11 21 mph 1020.4mb 44f 80f
3:24pm 10 16 mph 1020.4mb 44f 81f
3:18pm 8 15 mph 1020.4mb 44f 81f
3:12pm 10 15 mph 1020.5mb 44f 80f
3:06pm 10 21 mph 1020.5mb 44f 81f
3:00pm 8 17 mph 1020.5mb 45f 81f
2:54pm 15 20 mph 1020.6mb 46f 80f
2:48pm 10 21 mph 1020.6mb 46f 80f
2:42pm 11 17 mph 1020.6mb 46f 80f
2:36pm 13 16 mph 1020.7mb 46f 80f
2:30pm 9 16 mph 1020.6mb 46f 80f
2:24pm 11 18 mph 1020.6mb 46f 80f
2:18pm 10 18 mph 1020.6mb 46f 80f
2:12pm 11 21 mph 1020.5mb 46f 81f
2:06pm 10 17 mph 1020.6mb 46f 81f
2:00pm 11 16 mph 1020.6mb 46f 81f
1:54pm 7 15 mph 1020.6mb 46f 81f
1:48pm 7 15 mph 1020.6mb 46f 81f
1:42pm 8 11 mph 1020.6mb 46f 81f
1:36pm 8 13 mph 1020.7mb 46f 80f
1:30pm 10 14 mph 1020.8mb 46f 80f
1:24pm 10 17 mph 1021mb 46f 80f
1:18pm 8 14 mph 1021.1mb 46f 81f
1:12pm 11 16 mph 1021.1mb 46f 80f
1:06pm 11 20 mph 1021.1mb 45f 80f
1:00pm 13 20 mph 1021.2mb 45f 80f
12:54pm 11 18 mph 1021.2mb 45f 80f
12:48pm 11 17 mph 1021.2mb 45f 81f
12:42pm 13 17 mph 1021.1mb 45f 80f
12:36pm 13 22 mph 1021.2mb 44f 80f
12:30pm 10 16 mph 1021.3mb 44f 81f
12:24pm 10 16 mph 1021.3mb 44f 80f
12:18pm 9 21 mph 1021.3mb 44f 80f
12:12pm 15 21 mph 1021.3mb 44f 80f
12:06pm 10 17 mph 1021.3mb 44f 81f
12:00pm 10 17 mph 1021.3mb 44f 80f
11:54am 9 15 mph 1021.4mb 44f 80f
11:48am 8 15 mph 1021.4mb 44f 80f
11:42am 6 14 mph 1021.5mb 44f 80f
11:36am 11 22 mph 1021.5mb 44f 79f
11:30am 9 16 mph 1021.6mb 44f 79f
11:24am 13 18 mph 1021.4mb 44f 79f
11:18am 9 18 mph 1021.5mb 44f 79f
11:12am 11 18 mph 1021.4mb 44f 78f
11:06am 10 20 mph 1021.5mb 44f 78f
11:00am 10 18 mph 1021.5mb 44f 78f
10:54am 8 15 mph 1021.6mb 44f 78f
10:48am 11 16 mph 1021.5mb 44f 77f
10:42am 7 11 mph 1021.6mb 44f 77f
10:36am 8 15 mph 1021.6mb 44f 77f
10:30am 8 15 mph 1021.6mb 43f 76f
10:24am 8 14 mph 1021.5mb 43f 76f
10:18am 9 14 mph 1021.5mb 44f 75f
10:12am 8 16 mph 1021.5mb 44f 75f
10:06am 7 13 mph 1021.5mb 44f 76f
10:00am 7 13 mph 1021.5mb 44f 74f
9:54am 7 14 mph 1021.6mb 43f 73f
9:48am 9 14 mph 1021.6mb 43f 73f
9:42am 8 14 mph 1021.6mb 44f 73f
9:36am 9 14 mph 1021.6mb 44f 73f
9:30am 6 9 mph 1021.6mb 44f 73f
9:24am 7 11 mph 1021.7mb 43f 72f
9:18am 7 13 mph 1021.7mb 43f 72f
9:12am 8 11 mph 1021.7mb 43f 72f
9:06am 7 10 mph 1021.7mb 43f 72f
9:00am 5 10 mph 1021.7mb 43f 71f
8:54am 5 10 mph 1021.8mb 43f 71f
8:48am 6 9 mph 1021.9mb 43f 66f
8:42am 3 6 mph 1021.8mb 43f 65f
8:36am 6
mph
1021.8mb 43f 65f
8:30am 2 6 mph 1021.8mb 43f 65f
8:24am 1 5 mph 1021.8mb 43f 64f
8:18am 2 3 mph 1021.9mb 43f 63f
8:12am 1 3 mph 1021.9mb 42f 62f
8:06am 3 6 mph 1021.9mb 42f 61f
8:00am 3 6 mph 1021.9mb 42f 66f
7:54am 2 5 mph 1021.9mb 42f 65f
7:48am 2 6 mph 1021.9mb 42f 65f
7:42am 2 6 mph 1021.9mb 42f 65f
7:36am 3 8 mph 1021.9mb 42f 64f
7:30am 2 7 mph 1021.8mb 42f 62f
7:24am 3 5 mph 1021.8mb 42f 60f
7:18am 2 3 mph 1021.8mb 42f 58f
7:12am 2 3 mph 1021.7mb 42f 57f
7:06am 3 5 mph 1021.7mb 42f 56f
7:00am 2
mph
1021.7mb 42f 55f
6:54am  -  1 mph 1021.7mb 42f 54f
6:48am  -  1 mph 1021.7mb 42f 54f
6:42am  -  2 mph 1021.6mb 42f 53f
6:36am 1 2 mph 1021.6mb 42f 53f
6:30am 2
mph
1021.6mb 42f 52f
6:24am 2 3 mph 1021.6mb 42f 52f
6:18am 2 3 mph 1021.7mb 42f 52f
6:12am 2
mph
1021.6mb 42f 51f
6:06am 1 2 mph 1021.6mb 42f 51f
6:00am 1
mph
1021.5mb 42f 51f
5:54am  -  1 mph 1021.5mb 41f 51f
5:48am  -  1 mph 1021.4mb 41f 51f
5:42am 1 3 mph 1021.4mb 41f 51f
5:36am 3
mph
1021.4mb 41f 51f
5:30am 3
mph
1021.3mb 41f 50f
5:24am 2 3 mph 1021.2mb 41f 51f
5:18am 3
mph
1021.1mb 41f 53f
5:12am 2 3 mph 1021.1mb 41f 53f
5:06am 2 3 mph 1021.1mb 41f 55f
5:00am  -  1 mph 1021mb 41f 55f
4:54am 1 2 mph 1021mb 41f 55f
4:48am  -  1 mph 1020.9mb 41f 55f
4:42am  -  2 mph 1020.8mb 41f 56f
4:36am 2 3 mph 1020.7mb 41f 56f
4:30am 2 5 mph 1020.7mb 41f 57f
4:24am 5 6 mph 1020.8mb 42f 57f
4:18am 6 9 mph 1020.8mb 42f 58f
4:12am 8 9 mph 1020.8mb 42f 57f
4:06am 7 8 mph 1020.7mb 42f 56f
4:00am 5 6 mph 1020.7mb 42f 57f
3:54am 1 2 mph 1020.6mb 42f 57f
3:48am  -  3 mph 1020.6mb 42f 58f
3:42am 2 3 mph 1020.6mb 42f 59f
3:36am 1 2 mph 1020.5mb 42f 60f
3:30am 2 3 mph 1020.5mb 42f 59f
3:24am 3 5 mph 1020.6mb 42f 60f
3:18am 3 6 mph 1020.6mb 42f 60f
3:12am 6 7 mph 1020.7mb 42f 59f
3:06am 6 8 mph 1020.7mb 42f 60f
3:00am 8
mph
1020.7mb 42f 60f
2:54am 3 9 mph 1020.7mb 42f 64f
2:48am 6 9 mph - 42f 64f
2:42am 6 10 mph - 42f 64f
2:36am 7 10 mph - 42f 64f
2:30am 6 9 mph 1020.7mb 42f 64f
2:24am 6 11 mph 1020.7mb 42f 64f
2:18am 7 13 mph 1020.7mb 42f 64f
2:12am 8 13 mph 1020.8mb 42f 65f
2:06am 8 13 mph 1020.7mb 43f 65f
2:00am 8 14 mph 1020.7mb 44f 65f
1:54am 9 15 mph 1020.8mb 45f 65f
1:48am 10 16 mph 1020.7mb 46f 66f
1:42am 11 16 mph 1020.7mb 46f 66f
1:36am 10 15 mph 1020.7mb 46f 65f
1:30am 10 15 mph 1020.8mb 47f 66f
1:24am 9 14 mph 1020.8mb 47f 66f
1:18am 8 14 mph 1020.8mb 47f 66f
1:12am 9 14 mph 1020.8mb 47f 66f
1:06am 9 14 mph 1020.8mb 47f 67f
1:00am 7 13 mph 1020.9mb 47f 67f
12:54am 7 14 mph 1020.8mb 47f 67f
12:48am 8 13 mph 1020.9mb 47f 67f
12:42am 9 13 mph 1021mb 47f 67f
12:36am 8 14 mph 1021.1mb 47f 67f
12:30am 10 16 mph 1021mb 47f 68f
12:24am 7 13 mph 1021mb 47f 68f
12:18am 8 13 mph 1021mb 47f 68f
12:12am 8 17 mph 1021.1mb 47f 68f
12:06am 7 13 mph 1021.1mb 46f 68f
12:00am 8 15 mph 1021.1mb 46f 68f
Sun 05/24 11:54pm 7 14 mph 1021mb 46f 68f
11:48pm 8 13 mph 1020.9mb 46f 68f
11:42pm 8 14 mph 1020.9mb 46f 68f
11:36pm 7 14 mph 1020.7mb 46f 68f
11:30pm 9 15 mph 1020.7mb 46f 68f
11:24pm 9 14 mph 1020.5mb 46f 68f
11:18pm 8 11 mph 1020.4mb 46f 68f
11:12pm 9 14 mph 1020.4mb 46f 68f
11:06pm 7 10 mph 1020.3mb 46f 69f
11:00pm 6 9 mph 1020.2mb 46f 68f
10:54pm 6 9 mph 1020.2mb 46f 69f
10:48pm 6 10 mph 1020.3mb 46f 69f
10:42pm 7 10 mph 1020.3mb 46f 69f
10:36pm 7 9 mph 1020.2mb 46f 69f
10:30pm 6 8 mph 1020.2mb 46f 69f
10:24pm 6 8 mph 1020.2mb 46f 69f
10:18pm 5 8 mph 1020.2mb 46f 69f
10:12pm 6 7 mph 1020.2mb 46f 69f
10:06pm 6 8 mph 1020.1mb 46f 69f
10:00pm 5 7 mph 1020.1mb 46f 69f
9:54pm 5 8 mph 1020mb 46f 70f
9:48pm 6 8 mph 1019.9mb 45f 70f
9:42pm 6 8 mph 1019.8mb 45f 70f
9:36pm 6 8 mph 1019.8mb 45f 70f
9:30pm 6 10 mph 1019.8mb 45f 70f
9:24pm 7 9 mph 1019.7mb 45f 70f
9:18pm 6 9 mph 1019.6mb 45f 70f
9:12pm 5 8 mph 1019.5mb 44f 70f
9:06pm 5 7 mph 1019.4mb 44f 71f
9:00pm 6 7 mph 1019.3mb 44f 71f
8:54pm 5 7 mph 1019.2mb 44f 71f
8:48pm 5 7 mph 1019.1mb 44f 71f
8:42pm 5 7 mph 1019.1mb 44f 72f
8:36pm 5 6 mph 1019mb 43f 72f
8:30pm 5 6 mph 1018.9mb 43f 72f
8:24pm 3 6 mph 1018.9mb 44f 73f
8:18pm 5 6 mph 1018.9mb 44f 73f
8:12pm 3 5 mph 1018.9mb 43f 74f
8:06pm 3 5 mph 1018.8mb 43f 75f
8:00pm 3
mph
1018.8mb 43f 75f
7:54pm 3 5 mph 1018.7mb 44f 76f
7:48pm 3 5 mph 1018.6mb 44f 76f
7:42pm 3 5 mph 1018.5mb 44f 77f
7:36pm 2 5 mph 1018.5mb 43f 77f
7:30pm 3 6 mph 1018.4mb 43f 78f
7:24pm 3 6 mph 1018.4mb 43f 78f
7:18pm 5 8 mph 1018.3mb 43f 79f
7:12pm 7 11 mph 1018.3mb 43f 79f
7:06pm 6 10 mph 1018.2mb 43f 79f
7:00pm 7 14 mph 1018.2mb 43f 80f
6:54pm 8 14 mph 1018.1mb 43f 80f
6:48pm 7 11 mph 1018mb 43f 80f
6:42pm 7 11 mph 1017.8mb 43f 80f
6:36pm 6 10 mph 1017.8mb 42f 80f
6:30pm 10 13 mph 1017.9mb 42f 81f
6:24pm 7 13 mph 1017.9mb 42f 81f
6:18pm 9 14 mph 1017.9mb 42f 81f
6:12pm 8 13 mph 1018mb 42f 80f
6:06pm 10 15 mph 1018.1mb 42f 80f
6:00pm 8 14 mph 1018mb 42f 80f
5:54pm 11 16 mph 1018mb 42f 80f
5:48pm 6 14 mph 1018mb 42f 80f
5:42pm 7 17 mph 1018mb 42f 81f
5:36pm 11 16 mph 1018.1mb 42f 81f
5:30pm 13 22 mph 1018.1mb 42f 80f
5:24pm 11 17 mph 1018.2mb 42f 81f
5:18pm 10 16 mph 1018.1mb 42f 81f
5:12pm 7 14 mph 1018.1mb 42f 81f
5:06pm 8 18 mph 1018.2mb 42f 81f
5:00pm 13 20 mph 1018.2mb 42f 80f
4:54pm 10 17 mph 1018.1mb 42f 81f
4:48pm 10 20 mph 1018.1mb 42f 80f
4:42pm 11 20 mph 1018.2mb 42f 81f
4:36pm 13 23 mph 1018.3mb 42f 81f
4:30pm 14 23 mph 1018.4mb 42f 80f
4:24pm 13 20 mph 1018.3mb 42f 80f
4:18pm 15 21 mph 1018.4mb 42f 81f
4:12pm 10 20 mph 1018.4mb 42f 81f
4:06pm 11 24 mph 1018.5mb 42f 80f
4:00pm 14 23 mph 1018.5mb 42f 81f
3:54pm 14 22 mph 1018.5mb 42f 80f
3:48pm 10 21 mph 1018.6mb 42f 80f
3:42pm 11 21 mph 1018.7mb 42f 80f
3:36pm 11 24 mph 1018.7mb 42f 80f
3:30pm 11 22 mph 1018.7mb 42f 80f
3:24pm 13 20 mph 1018.7mb 42f 80f
3:18pm 16 25 mph 1018.6mb 42f 79f
3:12pm 11 22 mph 1018.8mb 42f 81f
3:06pm 14 24 mph 1018.8mb 42f 80f
3:00pm 15 23 mph 1018.8mb 42f 80f
2:54pm 17 23 mph 1018.9mb 42f 80f
2:48pm 15 22 mph 1018.8mb 42f 80f
2:42pm 10 21 mph 1019mb 42f 80f
2:36pm 13 20 mph 1019mb 42f 79f
2:30pm 15 26 mph 1019.1mb 43f 79f
2:24pm 11 20 mph 1019.1mb 43f 80f
2:18pm 11 22 mph 1019.2mb 43f 79f
2:12pm 11 21 mph 1019.2mb 44f 79f
2:06pm 14 22 mph 1019.3mb 44f 78f
2:00pm 10 17 mph 1019.3mb 44f 78f
1:54pm 13 22 mph 1019.4mb 44f 78f
1:48pm 13 18 mph 1019.4mb 44f 78f
1:42pm 11 22 mph 1019.4mb 44f 78f
1:36pm 11 20 mph 1019.5mb 44f 78f
1:30pm 13 21 mph 1019.5mb 44f 79f
1:24pm 11 20 mph 1019.5mb 44f 78f
1:18pm 10 18 mph 1019.6mb 44f 78f
1:12pm 15 22 mph 1019.5mb 44f 77f
1:06pm 16 25 mph 1019.4mb 44f 78f
1:00pm 11 18 mph 1019.5mb 44f 79f
12:54pm 16 23 mph 1019.7mb 43f 78f
12:48pm 11 17 mph 1019.8mb 43f 78f
12:42pm 11 20 mph 1019.8mb 43f 78f
12:36pm 14 23 mph 1019.9mb 43f 77f
12:30pm 10 17 mph 1019.9mb 43f 77f
12:24pm 9 18 mph 1019.9mb 43f 77f
12:18pm 13 20 mph 1020mb 43f 76f
12:12pm 8 14 mph 1020.1mb 43f 76f
12:06pm 11 18 mph 1020.2mb 43f 76f
12:00pm 8 17 mph 1020.3mb 43f 76f
11:54am 11 18 mph 1020.3mb 43f 75f
11:48am 9 15 mph 1020.3mb 43f 75f
11:42am 10 20 mph 1020.4mb 43f 74f
11:36am 13 17 mph 1020.4mb 43f 74f
11:30am 9 16 mph 1020.6mb 43f 74f
11:24am 10 16 mph 1020.6mb 43f 74f
11:18am 11 17 mph 1020.7mb 43f 73f
11:12am 10 18 mph 1020.8mb 43f 73f
11:06am 8 15 mph 1020.8mb 43f 73f
11:00am 11 16 mph 1020.8mb 43f 72f
10:54am 9 18 mph 1020.8mb 43f 72f
10:48am 11 17 mph 1020.9mb 43f 72f
10:42am 10 18 mph 1021mb 43f 71f
10:36am 9 14 mph 1021.1mb 43f 71f
10:30am 11 17 mph 1021.1mb 43f 70f
10:24am 14 18 mph 1021.1mb 43f 69f
10:18am 14 18 mph 1021.1mb 42f 70f
10:12am 10 22 mph 1021.2mb 42f 69f
10:06am 14 20 mph 1021.2mb 42f 69f
10:00am 11 18 mph 1021.1mb 42f 69f
9:54am 11 20 mph 1021.1mb 42f 68f
9:48am 11 20 mph 1021.3mb 42f 67f
9:42am 13 20 mph 1021.3mb 42f 67f
9:36am 13 18 mph 1021.4mb 42f 66f
9:30am 13 17 mph 1021.5mb 42f 65f
9:24am 9 16 mph 1021.5mb 42f 65f
9:18am 8 13 mph 1021.5mb 42f 64f
9:12am 7 15 mph 1021.7mb 42f 63f
9:06am 9 14 mph 1021.8mb 42f 62f
9:00am 6 11 mph 1021.8mb 42f 62f
8:54am 7 13 mph 1021.8mb 42f 61f
8:48am 3 7 mph 1022mb 42f 60f
8:42am 6 8 mph 1021.9mb 42f 59f
8:36am 1 6 mph 1021.9mb 42f 59f
8:30am 6 11 mph 1021.7mb 42f 59f
8:24am 6 14 mph 1021.6mb 42f 59f
8:18am 5 11 mph 1021.5mb 42f 59f
8:12am 7 10 mph 1021.5mb 42f 58f
8:06am 5 11 mph 1021.5mb 42f 57f
8:00am 6 13 mph 1021.6mb 42f 56f
7:54am 7 10 mph 1021.6mb 42f 55f
7:48am 9 14 mph 1021.6mb 42f 55f
7:42am 9 14 mph 1021.6mb 42f 55f
7:36am 9 14 mph 1021.5mb 42f 55f
7:30am 9 15 mph 1021.6mb 42f 54f
7:24am 10 16 mph 1021.6mb 42f 53f
7:18am 9 14 mph 1021.6mb 42f 53f
7:12am 10 15 mph 1021.6mb 42f 53f
7:06am 9 15 mph 1021.7mb 41f 53f
7:00am 11 17 mph 1021.7mb 41f 53f
6:54am 10 16 mph 1021.7mb 41f 52f
6:48am 8 14 mph 1021.8mb 41f 53f
6:42am 8 13 mph 1021.7mb 41f 53f
6:36am 8 13 mph 1021.6mb 41f 52f
6:30am 9 15 mph 1021.6mb 41f 51f
6:24am 9 14 mph 1021.6mb 41f 51f
6:18am 7 13 mph 1021.6mb 41f 51f
6:12am 7 13 mph 1021.6mb 41f 51f
6:06am 9 15 mph 1021.5mb 41f 51f
6:00am 11 15 mph 1021.5mb 41f 51f
5:54am 10 17 mph 1021.5mb 41f 51f
5:48am 11 20 mph 1021.4mb 41f 51f
5:42am 14 21 mph 1021.4mb 41f 51f
5:36am 14 20 mph 1021.3mb 41f 51f
5:30am 11 16 mph 1021.4mb 41f 51f
5:24am 9 16 mph 1021.4mb 41f 51f
5:18am 7 14 mph 1021.5mb 41f 51f
5:12am 8 16 mph 1021.4mb 41f 51f
5:06am 8 14 mph 1021.3mb 41f 51f
5:00am 7 14 mph 1021.4mb 41f 51f
4:54am 7 14 mph 1021.4mb 41f 51f
4:48am 8 14 mph 1021.5mb 41f 51f
4:42am 9 13 mph 1021.5mb 41f 52f
4:36am 5 11 mph 1021.5mb 41f 52f
4:30am 7 11 mph 1021.6mb 41f 52f
4:24am 5 9 mph 1021.6mb 42f 52f
4:18am 5 9 mph 1021.6mb 41f 52f
4:12am 7 11 mph 1021.7mb 41f 52f
4:06am 5 10 mph 1021.7mb 41f 51f
4:00am 7 9 mph 1021.7mb 41f 51f
3:54am 5 7 mph 1021.8mb 41f 51f
3:48am 5 8 mph 1021.8mb 41f 51f
3:42am 5 8 mph 1021.9mb 41f 51f
3:36am 6 8 mph 1022mb 41f 51f
3:30am 6 8 mph 1022.1mb 41f 51f
3:24am 5 6 mph 1022.2mb 41f 51f
3:18am 5 11 mph 1022.2mb 41f 52f
3:12am 6 10 mph 1022.2mb 41f 52f
3:06am 6 9 mph 1022.3mb 41f 52f
3:00am 5 9 mph 1022.2mb 41f 52f
2:54am 6 8 mph 1022.2mb 41f 52f
2:48am 6 8 mph 1022.2mb 41f 52f
2:42am 3 7 mph 1022.3mb 41f 52f
2:36am 5 10 mph 1022.3mb 41f 52f
2:30am 5 8 mph 1022.4mb 41f 52f
2:24am 6 9 mph 1022.4mb 41f 52f
2:18am 6 11 mph 1022.4mb 41f 52f
2:12am 7 11 mph 1022.3mb 41f 52f
2:06am 7 10 mph 1022.2mb 41f 51f
2:00am 7 10 mph - 41f 51f
1:54am 7 10 mph - 41f 51f
1:48am 6 9 mph 1022.4mb 41f 50f
1:42am 6 10 mph 1022.4mb 41f 50f
1:36am 7 9 mph 1022.4mb 42f 50f
1:30am 7 8 mph 1022.4mb 42f 50f
1:24am 6 7 mph 1022.5mb 42f 50f
1:18am 3 6 mph 1022.5mb 43f 50f
1:12am 3 6 mph 1022.7mb 44f 51f
1:06am 3 6 mph 1022.7mb 45f 51f
1:00am 5 8 mph 1022.7mb 46f 51f
12:54am 5 7 mph 1022.7mb 46f 51f
12:48am 5 7 mph 1022.8mb 47f 51f
12:42am 5 8 mph 1022.9mb 47f 52f
12:36am 5 9 mph 1022.9mb 47f 52f
12:30am 6 13 mph 1022.8mb 47f 52f
12:24am 8 14 mph 1022.8mb 47f 52f
12:18am 8 13 mph 1022.8mb 47f 52f
12:12am 7 13 mph 1022.7mb 47f 52f
12:06am 7 9 mph 1022.7mb 47f 52f
12:00am 7 10 mph 1022.8mb 47f 52f
Sat 05/23 11:54pm 6 9 mph 1022.9mb 47f 52f
11:48pm 6 8 mph 1023mb 46f 52f
11:42pm 6 10 mph 1023.1mb 46f 53f
11:36pm 6 10 mph 1023.1mb 46f 53f
11:30pm 6 11 mph 1023.1mb 46f 53f
11:24pm 6 9 mph 1023mb 46f 53f
11:18pm 6 10 mph 1022.9mb 46f 53f
11:12pm 8 11 mph 1022.9mb 46f 53f
11:06pm 6 10 mph 1022.8mb 46f 53f
11:00pm 7 11 mph 1022.7mb 46f 53f
10:54pm 7 13 mph 1022.8mb 46f 53f
10:48pm 6 10 mph 1022.8mb 46f 53f
10:42pm 7 8 mph 1022.8mb 46f 53f
10:36pm 6 8 mph 1022.8mb 46f 52f
10:30pm 3 6 mph 1022.8mb 46f 51f
10:24pm 3 6 mph 1022.8mb 45f 51f
10:18pm 3 6 mph 1022.8mb 45f 51f
10:12pm 5 8 mph 1022.8mb 45f 52f
10:06pm 6 7 mph 1022.9mb 45f 52f
10:00pm 6 7 mph 1022.9mb 45f 53f
9:54pm 5 8 mph 1023mb 45f 53f
9:48pm 5 7 mph 1023.1mb 45f 54f
9:42pm 6 8 mph 1023.1mb 45f 54f
9:36pm 6 9 mph 1023.1mb 45f 54f
9:30pm 6 8 mph 1023.1mb 45f 54f
9:24pm 6 8 mph 1023.1mb 45f 55f
9:18pm 5 8 mph 1023mb 45f 55f
9:12pm 6 9 mph 1022.9mb 45f 55f
9:06pm 6 7 mph 1022.9mb 45f 55f
9:00pm 6 7 mph 1022.9mb 45f 55f
8:54pm 6 7 mph 1022.9mb 45f 55f
8:48pm 5 7 mph 1022.8mb 44f 55f
8:42pm 5 6 mph 1022.9mb 44f 56f
8:36pm 6 7 mph 1022.8mb 44f 56f
8:30pm 6 8 mph 1022.8mb 44f 56f
8:24pm 5 6 mph 1022.8mb 44f 56f
8:18pm 6
mph
1022.8mb 44f 56f
8:12pm 5 6 mph 1022.8mb 44f 57f
8:06pm 5
mph
1022.9mb 44f 57f
8:00pm 3
mph
1022.8mb 44f 58f
7:54pm 3
mph
1022.8mb 43f 59f
7:48pm 3 6 mph 1022.8mb 43f 60f
7:42pm 3 6 mph 1022.8mb 43f 60f
7:36pm 5 8 mph 1022.8mb 43f 61f
7:30pm 7 13 mph 1022.8mb 43f 61f
7:24pm 7 15 mph 1022.8mb 43f 62f
7:18pm 11 15 mph 1022.8mb 43f 62f
7:12pm 9 15 mph 1022.9mb 43f 62f
7:06pm 7 11 mph 1022.9mb 43f 62f
7:00pm 7 11 mph 1022.9mb 43f 62f
6:54pm 9 14 mph 1022.8mb 43f 62f
6:48pm 9 16 mph 1022.8mb 43f 62f
6:42pm 10 17 mph 1022.7mb 43f 62f
6:36pm 10 14 mph 1022.7mb 43f 62f
6:30pm 10 18 mph 1022.7mb 43f 62f
6:24pm 13 18 mph 1022.6mb 43f 62f
6:18pm 8 14 mph 1022.6mb 43f 62f
6:12pm 9 14 mph 1022.6mb 43f 62f
6:06pm 9 15 mph 1022.6mb 43f 62f
6:00pm 10 17 mph 1022.6mb 43f 62f
5:54pm 7 16 mph 1022.5mb 43f 62f
5:48pm 14 18 mph 1022.5mb 42f 61f
5:42pm 11 20 mph 1022.5mb 42f 62f
5:36pm 11 18 mph 1022.6mb 42f 62f
5:30pm 14 18 mph 1022.6mb 42f 61f
5:24pm 10 21 mph 1022.7mb 42f 62f
5:18pm 14 18 mph 1022.7mb 42f 61f
5:12pm 11 20 mph 1022.7mb 42f 62f
5:06pm 17 25 mph 1022.7mb 42f 61f
5:00pm 11 22 mph 1022.7mb 42f 61f
4:54pm 13 20 mph 1022.7mb 42f 61f
4:48pm 9 17 mph 1022.8mb 42f 61f
4:42pm 10 25 mph 1022.9mb 42f 62f
4:36pm 15 24 mph 1022.9mb 42f 60f
4:30pm 15 24 mph 1023mb 42f 61f
4:24pm 18 25 mph 1022.8mb 42f 60f
4:18pm 16 28 mph 1023mb 42f 60f
4:12pm 17 22 mph 1022.9mb 42f 60f
4:06pm 16 28 mph 1023mb 42f 60f
4:00pm 18 24 mph 1023.1mb 42f 60f
3:54pm 15 25 mph 1023.2mb 42f 60f
3:48pm 18 25 mph 1023.2mb 42f 60f
3:42pm 13 32 mph 1023.2mb 42f 60f
3:36pm 20 29 mph 1022.9mb 42f 59f
3:30pm 21 28 mph 1023mb 42f 59f
3:24pm 13 24 mph 1023.3mb 42f 60f
3:18pm 10 22 mph 1023.2mb 42f 59f
3:12pm 13 21 mph 1023.4mb 42f 60f
3:06pm 14 21 mph 1023.5mb 42f 60f
3:00pm 14 23 mph 1023.5mb 42f 59f
2:54pm 20 24 mph 1023.4mb 42f 58f
2:48pm 13 28 mph 1023.6mb 42f 59f
2:42pm 17 24 mph 1023.5mb 42f 58f
2:36pm 14 24 mph 1023.6mb 42f 58f
2:30pm 15 23 mph 1023.6mb 42f 58f
2:24pm 15 24 mph 1023.5mb 42f 58f
2:18pm 16 28 mph 1023.6mb 42f 58f
2:12pm 9 22 mph 1023.6mb 42f 58f
2:06pm 14 23 mph 1023.6mb 42f 58f
2:00pm 17 26 mph 1023.5mb 42f 56f
1:54pm 15 24 mph 1023.6mb 42f 57f
1:48pm 11 23 mph 1023.6mb 42f 57f
1:42pm 13 29 mph 1023.5mb 43f 57f
1:36pm 17 23 mph 1023.6mb 43f 56f
1:30pm 13 22 mph 1023.8mb 43f 56f
1:24pm 13 20 mph 1023.9mb 43f 56f
1:18pm 16 25 mph 1023.9mb 44f 56f
1:12pm 15 24 mph 1023.9mb 44f 55f
1:06pm 14 20 mph 1023.9mb 44f 55f
1:00pm 16 24 mph 1024mb 45f 54f
12:54pm 18 24 mph 1024mb 45f 54f
12:48pm 17 23 mph 1024mb 45f 54f
12:42pm 18 28 mph 1023.8mb 45f 54f
12:36pm 15 24 mph 1023.7mb 45f 55f
12:30pm 21 29 mph 1023.7mb 45f 53f
12:24pm 20 28 mph 1023.7mb 45f 54f
12:18pm 20 26 mph 1023.5mb 45f 53f
12:12pm 10 18 mph 1023.6mb 45f 54f
12:06pm 16 25 mph 1023.7mb 45f 53f
12:00pm 16 28 mph 1023.7mb 45f 53f
11:54am 14 21 mph 1023.7mb 45f 53f
11:48am 14 21 mph 1023.8mb 45f 53f
11:42am 15 20 mph 1023.7mb 45f 53f
11:36am 11 20 mph 1023.7mb 45f 52f
11:30am 8 16 mph 1023.7mb 45f 53f
11:24am 10 21 mph 1023.8mb 45f 52f
11:18am 15 18 mph 1023.7mb 44f 52f
11:12am 11 23 mph 1023.9mb 44f 52f
11:06am 14 23 mph 1023.9mb 44f 52f
11:00am 10 20 mph 1023.7mb 44f 52f
10:54am 15 24 mph 1023.8mb 44f 51f
10:48am 17 24 mph 1023.7mb 44f 51f
10:42am 13 26 mph 1023.8mb 44f 51f
10:36am 17 29 mph 1023.7mb 44f 50f
10:30am 11 20 mph 1023.8mb 44f 50f
10:24am 16 24 mph 1023.8mb 44f 50f
10:18am 13 21 mph 1023.7mb 44f 50f
10:12am 18 29 mph 1023.6mb 44f 49f
10:06am 15 25 mph 1023.6mb 44f 49f
10:00am 13 22 mph 1023.6mb 44f 49f
9:54am 16 21 mph 1023.6mb 44f 49f
9:48am 15 21 mph 1023.6mb 44f 49f
9:42am 17 23 mph 1023.7mb 44f 48f
9:36am 15 26 mph 1023.7mb 44f 49f
9:30am 16 23 mph 1023.6mb 44f 47f
9:24am 16 25 mph 1023.6mb 44f 47f
9:18am 14 25 mph 1023.6mb 44f 48f
9:12am 20 23 mph 1023.6mb 44f 47f
9:06am 11 20 mph 1023.6mb 44f 48f
9:00am 13 20 mph 1023.7mb 44f 47f
8:54am 17 24 mph 1023.7mb 44f 47f
8:48am 11 21 mph 1023.6mb 44f 47f
8:42am 15 22 mph 1023.6mb 44f 46f
8:36am 15 21 mph 1023.5mb 44f 46f
8:30am 14 24 mph 1023.6mb 44f 46f
8:24am 14 21 mph 1023.6mb 44f 46f
8:18am 7 14 mph 1023.6mb 44f 47f
8:12am 8 20 mph 1023.5mb 44f 46f
8:06am 10 17 mph 1023.4mb 44f 46f
8:00am 6 17 mph 1023.3mb 44f 46f
7:54am 8 16 mph 1023.2mb 44f 46f
7:48am 10 15 mph 1023.1mb 44f 45f
7:42am 9 14 mph 1023.1mb 44f 45f
7:36am 8 14 mph 1023.2mb 44f 45f
7:30am 10 16 mph 1023.1mb 44f 44f
7:24am 6 14 mph 1023.1mb 44f 44f
7:18am 9 14 mph 1023.1mb 44f 44f
7:12am 8 11 mph 1023mb 44f 44f
7:06am 7 11 mph 1023mb 44f 44f
7:00am 7 11 mph 1022.9mb 44f 44f
6:54am 7 11 mph 1022.8mb 44f 43f
6:48am 8 13 mph 1022.8mb 44f 43f
6:42am 7 13 mph 1022.7mb 43f 43f
6:36am 6 9 mph 1022.6mb 43f 43f
6:30am 7 11 mph 1022.5mb 43f 42f
6:24am 6 10 mph 1022.4mb 43f 42f
6:18am 6 10 mph 1022.3mb 43f 42f
6:12am 8 9 mph 1022.2mb 43f 42f
6:06am 7 11 mph 1022.1mb 43f 42f
6:00am 6 9 mph 1022mb 43f 42f
5:54am 3 7 mph 1021.9mb 43f 41f
5:48am 3 6 mph 1021.8mb 43f 41f